Time;durP1;ratioP1;P1;durP2;ratioP2;P2;SDS_P1;SDS_P2;PMS_P1;PMS_P2;Temp;Humidity;BMP_temperature;BMP_pressure;BME280_temperature;BME280_humidity;BME280_pressure;Samples;Min_cycle;Max_cycle;Signal;HPM_P1;HPM_P2
2023/01/11 00:00:55;;;;;;;2.75;2.65;;;;;;;9.65;100.00;100765.13;5224663;28;20025;-66
2023/01/11 00:03:25;;;;;;;2.78;2.65;;;;;;;9.63;100.00;100761.03;5206198;28;20047;-66
2023/01/11 00:05:57;;;;;;;2.00;2.00;;;;;;;9.64;100.00;100759.97;5224508;28;20013;-66
2023/01/11 00:08:28;;;;;;;6.00;2.95;;;;;;;9.56;100.00;100753.16;5224306;28;20111;-65
2023/01/11 00:11:01;;;;;;;3.05;2.65;;;;;;;9.66;100.00;100758.66;5224500;28;20434;-65
2023/01/11 00:13:31;;;;;;;3.20;2.67;;;;;;;9.54;100.00;100733.72;5223992;28;20021;-65
2023/01/11 00:16:06;;;;;;;6.13;3.15;;;;;;;9.51;100.00;100733.41;5224246;28;20013;-65
2023/01/11 00:18:36;;;;;;;3.33;2.63;;;;;;;9.60;100.00;100756.97;5206663;28;20115;-65
2023/01/11 00:21:08;;;;;;;2.92;2.67;;;;;;;9.58;100.00;100753.72;5224667;28;20170;-66
2023/01/11 00:23:38;;;;;;;3.90;3.70;;;;;;;9.55;100.00;100748.00;5223137;28;20083;-65
2023/01/11 00:26:12;;;;;;;3.28;2.97;;;;;;;9.56;100.00;100752.31;5224682;28;20049;-65
2023/01/11 00:28:42;;;;;;;5.38;3.17;;;;;;;9.50;100.00;100756.88;5224847;28;20025;-65
2023/01/11 00:31:12;;;;;;;5.78;3.13;;;;;;;9.46;100.00;100750.34;5224831;28;20078;-65
2023/01/11 00:33:43;;;;;;;2.97;2.78;;;;;;;9.36;100.00;100734.84;5224482;28;20067;-66
2023/01/11 00:36:13;;;;;;;3.55;3.28;;;;;;;9.53;100.00;100747.47;5224772;28;20032;-66
2023/01/11 00:38:50;;;;;;;3.15;2.97;;;;;;;9.50;100.00;100750.66;5224923;28;20020;-66
2023/01/11 00:49:49;;;;;;;2.75;2.58;;;;;;;9.53;100.00;100742.84;5228425;28;20122;-65
2023/01/11 00:52:20;;;;;;;3.40;3.10;;;;;;;9.53;100.00;100739.38;5209966;28;20056;-65
2023/01/11 00:54:50;;;;;;;3.47;3.00;;;;;;;9.47;100.00;100717.75;5228241;28;20029;-65
2023/01/11 00:57:21;;;;;;;5.13;2.92;;;;;;;9.59;100.00;100741.03;5228366;28;20123;-66
2023/01/11 00:59:51;;;;;;;4.05;3.53;;;;;;;9.50;100.00;100739.88;5233800;22;20046;-85
2023/01/11 01:02:21;;;;;;;3.80;3.50;;;;;;;9.54;100.00;100736.41;5212905;28;20112;-85
2023/01/11 01:04:52;;;;;;;4.88;3.05;;;;;;;9.19;100.00;100674.84;5223427;28;20028;-85
2023/01/11 01:07:22;;;;;;;5.57;4.68;;;;;;;9.59;100.00;100738.34;5234330;28;20386;-86
2023/01/11 01:09:52;;;;;;;4.22;3.92;;;;;;;9.61;100.00;100734.34;5240492;22;20121;-69
2023/01/11 01:15:12;;;;;;;5.07;3.47;;;;;;;9.61;100.00;100734.34;5268179;28;20039;-69
2023/01/11 01:17:42;;;;;;;5.60;5.00;;;;;;;9.65;100.00;100729.25;5268304;28;20020;-68
2023/01/11 01:20:13;;;;;;;3.13;2.85;;;;;;;9.67;100.00;100735.22;5268485;28;20149;-68
2023/01/11 01:22:44;;;;;;;3.22;3.03;;;;;;;9.68;100.00;100729.56;5267388;28;20024;-69
2023/01/11 01:25:15;;;;;;;3.70;3.28;;;;;;;9.66;100.00;100733.59;5268055;28;20030;-68
2023/01/11 01:27:45;;;;;;;3.35;3.15;;;;;;;9.74;100.00;100728.56;5267194;28;20396;-69
2023/01/11 01:30:16;;;;;;;3.50;3.38;;;;;;;9.74;100.00;100739.34;5268349;28;20025;-69
2023/01/11 01:32:46;;;;;;;3.97;3.67;;;;;;;9.76;100.00;100733.69;5267566;28;20024;-69
2023/01/11 01:35:17;;;;;;;4.00;3.55;;;;;;;9.68;100.00;100724.19;5267956;28;20107;-69
2023/01/11 01:37:47;;;;;;;5.30;4.03;;;;;;;9.74;100.00;100733.94;5267855;28;20109;-69
2023/01/11 01:40:17;;;;;;;4.25;3.85;;;;;;;9.79;100.00;100735.91;5267587;28;20020;-69
2023/01/11 01:42:52;;;;;;;6.20;2.55;;;;;;;9.80;100.00;100737.53;5248882;28;20034;-69
2023/01/11 01:45:25;;;;;;;4.68;3.33;;;;;;;9.82;100.00;100740.75;5249958;28;20055;-69
2023/01/11 01:48:00;;;;;;;3.47;3.33;;;;;;;9.81;100.00;100745.38;5246607;28;20024;-68
2023/01/11 01:50:42;;;;;;;2.85;2.72;;;;;;;9.85;100.00;100742.13;5246657;28;20028;-68
2023/01/11 01:53:21;;;;;;;4.63;4.18;;;;;;;9.84;100.00;100738.63;5245830;28;20020;-69
2023/01/11 01:55:55;;;;;;;3.88;2.83;;;;;;;9.88;100.00;100749.72;5246361;28;20047;-69
2023/01/11 01:58:34;;;;;;;2.95;2.75;;;;;;;9.88;100.00;100739.75;5246579;28;20031;-69
2023/01/11 02:03:54;;;;;;;2.58;2.40;;;;;;;9.92;100.00;100748.16;5245615;28;20071;-69
2023/01/11 02:06:24;;;;;;;2.63;2.53;;;;;;;9.93;100.00;100763.25;5246225;28;20461;-69
2023/01/11 02:09:01;;;;;;;3.15;2.97;;;;;;;9.93;100.00;100744.38;5246197;28;20032;-69
2023/01/11 02:11:33;;;;;;;2.50;2.40;;;;;;;9.94;100.00;100746.81;5246082;28;20023;-69
2023/01/11 02:14:08;;;;;;;2.95;2.80;;;;;;;9.96;100.00;100752.78;5245642;28;20035;-69
2023/01/11 02:16:39;;;;;;;2.75;2.55;;;;;;;9.95;100.00;100743.06;5246079;28;20027;-69
2023/01/11 02:19:27;;;;;;;3.60;2.90;;;;;;;9.95;100.00;100734.16;5228048;28;20028;-69
2023/01/11 02:22:35;;;;;;;3.10;2.80;;;;;;;9.97;100.00;100748.22;5245072;28;20027;-68
2023/01/11 02:25:19;;;;;;;3.10;2.90;;;;;;;9.99;100.00;100743.38;5245760;28;20021;-69
2023/01/11 02:28:27;;;;;;;3.72;3.50;;;;;;;9.99;100.00;100736.09;5245701;28;20013;-69
2023/01/11 02:31:25;;;;;;;3.00;2.80;;;;;;;10.01;100.00;100728.56;5245781;28;20123;-69
2023/01/11 02:34:23;;;;;;;2.50;2.40;;;;;;;10.01;100.00;100725.03;5245224;28;20028;-69
2023/01/11 02:37:05;;;;;;;2.88;2.78;;;;;;;10.02;100.00;100727.50;5245589;28;20020;-69
2023/01/11 02:39:57;;;;;;;4.35;2.67;;;;;;;10.03;100.00;100722.91;5245643;28;20024;-69
2023/01/11 02:45:50;;;;;;;2.38;2.33;;;;;;;10.03;100.00;100723.72;5245552;28;20134;-68
2023/01/11 02:48:38;;;;;;;2.15;2.05;;;;;;;10.03;100.00;100714.81;5245398;28;20032;-68
2023/01/11 02:51:31;;;;;;;4.07;3.67;;;;;;;10.02;100.00;100719.41;5244984;28;20441;-68
2023/01/11 02:54:06;;;;;;;3.25;3.10;;;;;;;10.03;100.00;100714.81;5244928;28;20511;-69
2023/01/11 02:56:41;;;;;;;2.63;2.53;;;;;;;10.02;100.00;100707.78;5245231;28;20025;-69
2023/01/11 02:59:16;;;;;;;3.90;2.78;;;;;;;10.03;100.00;100709.41;5245233;28;20042;-68
2023/01/11 03:01:52;;;;;;;2.85;2.65;;;;;;;9.97;100.00;100694.25;5244866;28;20025;-69
2023/01/11 03:04:31;;;;;;;4.82;2.83;;;;;;;10.04;100.00;100709.16;5244977;28;20399;-68
2023/01/11 03:07:33;;;;;;;3.03;2.83;;;;;;;10.05;100.00;100715.38;5227075;28;20109;-69
2023/01/11 03:10:37;;;;;;;3.55;3.38;;;;;;;10.05;100.00;100715.38;5244807;28;20032;-69
2023/01/11 03:13:59;;;;;;;2.83;2.65;;;;;;;10.05;100.00;100713.50;5244532;28;20404;-68
2023/01/11 03:16:42;;;;;;;3.45;2.70;;;;;;;10.03;100.00;100728.31;5200391;28;20036;-68
2023/01/11 03:19:29;;;;;;;2.63;2.53;;;;;;;10.09;100.00;100728.09;5244961;28;20369;-69
2023/01/11 03:22:08;;;;;;;2.33;2.22;;;;;;;10.09;100.00;100728.09;5244243;28;20104;-69
2023/01/11 03:24:49;;;;;;;3.87;2.60;;;;;;;10.03;100.00;100723.72;5227152;28;20495;-69
2023/01/11 03:27:32;;;;;;;2.17;2.08;;;;;;;10.08;100.00;100712.16;5244753;28;20790;-68
2023/01/11 03:30:15;;;;;;;2.35;2.25;;;;;;;10.13;100.00;100725.69;5245081;28;20268;-68
2023/01/11 03:32:50;;;;;;;2.10;2.10;;;;;;;10.10;100.00;100728.91;5243969;28;20032;-69
2023/01/11 03:35:31;;;;;;;2.65;2.55;;;;;;;10.11;100.00;100723.25;5244694;28;20052;-68
2023/01/11 03:38:05;;;;;;;3.28;2.65;;;;;;;10.12;100.00;100716.78;5244834;28;20024;-69
2023/01/11 03:40:43;;;;;;;1.90;1.80;;;;;;;10.13;100.00;100718.41;5244704;28;20032;-68
2023/01/11 03:43:17;;;;;;;2.75;2.65;;;;;;;10.06;100.00;100707.03;5243714;28;20030;-68
2023/01/11 03:45:56;;;;;;;2.53;2.40;;;;;;;10.15;100.00;100729.75;5244365;28;20081;-68
2023/01/11 03:48:31;;;;;;;6.20;2.40;;;;;;;10.03;100.00;100715.63;5244576;28;20028;-69
2023/01/11 03:51:04;;;;;;;1.83;1.77;;;;;;;10.14;100.00;100730.81;5244458;28;20711;-69
2023/01/11 03:53:37;;;;;;;4.95;2.60;;;;;;;10.16;100.00;100726.00;5243428;28;20025;-69
2023/01/11 03:56:10;;;;;;;1.77;1.77;;;;;;;10.16;100.00;100731.38;5244721;28;20086;-69
2023/01/11 03:58:41;;;;;;;2.05;2.05;;;;;;;10.05;100.00;100712.69;5244582;28;20396;-69
2023/01/11 04:01:12;;;;;;;2.38;2.28;;;;;;;10.16;100.00;100734.09;5244398;28;20032;-69
2023/01/11 04:03:42;;;;;;;1.77;1.77;;;;;;;10.17;100.00;100743.00;5243520;28;20396;-69
2023/01/11 04:06:13;;;;;;;3.90;2.40;;;;;;;10.12;100.00;100735.66;5243932;28;20492;-69
2023/01/11 04:08:43;;;;;;;2.53;2.42;;;;;;;10.15;100.00;100745.94;5244432;28;20024;-69
2023/01/11 04:11:14;;;;;;;5.82;2.40;;;;;;;10.01;100.00;100715.06;5243293;28;20111;-69
2023/01/11 04:13:44;;;;;;;2.78;2.17;;;;;;;10.21;100.00;100746.03;5243013;28;20032;-70
2023/01/11 04:16:14;;;;;;;1.65;1.65;;;;;;;10.22;100.00;100739.56;5243133;28;20020;-69
2023/01/11 04:18:45;;;;;;;1.75;1.67;;;;;;;10.25;100.00;100742.56;5246381;28;20036;-69
2023/01/11 04:21:15;;;;;;;1.80;1.80;;;;;;;10.11;100.00;100728.63;5246915;28;20051;-68
2023/01/11 04:23:45;;;;;;;2.00;1.90;;;;;;;10.27;100.00;100753.09;5246258;28;20024;-69
2023/01/11 04:26:19;;;;;;;1.60;1.60;;;;;;;10.26;100.00;100754.19;5246693;28;20027;-68
2023/01/11 04:28:49;;;;;;;1.80;1.80;;;;;;;10.26;100.00;100755.00;5246785;28;20025;-69
2023/01/11 04:31:19;;;;;;;2.35;2.25;;;;;;;10.26;100.00;100763.09;5246857;28;20094;-68
2023/01/11 04:33:50;;;;;;;2.67;2.13;;;;;;;10.15;100.00;100756.75;5245985;28;20017;-69
2023/01/11 04:36:20;;;;;;;1.75;1.70;;;;;;;10.25;100.00;100777.66;5246831;28;20029;-69
2023/01/11 04:38:51;;;;;;;2.15;2.13;;;;;;;10.10;100.00;100754.03;5246931;28;20028;-69
2023/01/11 04:44:10;;;;;;;2.08;1.98;;;;;;;10.23;100.00;100774.38;5246346;28;20432;-69
2023/01/11 04:46:40;;;;;;;2.35;2.22;;;;;;;10.23;100.00;100768.19;5246656;28;20017;-69
2023/01/11 04:49:10;;;;;;;2.13;2.03;;;;;;;10.22;100.00;100766.53;5228820;28;20063;-69
2023/01/11 04:51:41;;;;;;;1.88;1.70;;;;;;;10.06;100.00;100754.78;5246179;28;20024;-69
2023/01/11 04:54:11;;;;;;;2.10;1.95;;;;;;;10.20;100.00;100782.19;5245798;28;20029;-69
2023/01/11 04:56:41;;;;;;;1.88;1.85;;;;;;;10.19;100.00;100788.63;5246712;28;20373;-69
2023/01/11 04:59:13;;;;;;;1.85;1.75;;;;;;;10.11;100.00;100766.41;5246858;28;20032;-68
2023/01/11 05:01:43;;;;;;;1.55;1.55;;;;;;;10.16;100.00;100790.75;5246586;28;20098;-69
2023/01/11 05:04:13;;;;;;;1.60;1.60;;;;;;;10.13;100.00;100785.84;5245667;28;20016;-68
2023/01/11 05:06:44;;;;;;;1.85;1.75;;;;;;;10.16;100.00;100795.34;5246169;28;20434;-68
2023/01/11 05:09:16;;;;;;;1.75;1.75;;;;;;;10.13;100.00;100795.84;5207334;28;1123096;-69
2023/01/11 05:11:47;;;;;;;1.77;1.77;;;;;;;10.11;100.00;100809.59;5247436;28;20021;-69
2023/01/11 05:14:17;;;;;;;2.20;2.10;;;;;;;9.98;100.00;100788.41;5247313;28;20203;-68
2023/01/11 05:16:47;;;;;;;3.28;2.25;;;;;;;10.04;100.00;100810.88;5247621;28;20012;-68
2023/01/11 05:19:18;;;;;;;2.90;2.80;;;;;;;10.01;100.00;100809.50;5247412;28;20024;-69
2023/01/11 05:21:48;;;;;;;3.35;3.15;;;;;;;9.95;100.00;100810.50;5247120;28;20059;-68
2023/01/11 05:24:18;;;;;;;6.10;3.42;;;;;;;10.00;100.00;100810.56;5246912;28;20021;-67
2023/01/11 05:26:51;;;;;;;2.50;2.40;;;;;;;10.02;100.00;100813.81;5247240;28;20062;-68
2023/01/11 05:29:21;;;;;;;2.35;2.25;;;;;;;10.03;100.00;100818.16;5246099;28;20153;-68
2023/01/11 05:31:52;;;;;;;4.40;3.38;;;;;;;10.02;100.00;100821.09;5247044;28;20393;-68
2023/01/11 05:34:22;;;;;;;2.97;2.88;;;;;;;10.03;100.00;100818.16;5247569;28;20187;-67
2023/01/11 05:36:52;;;;;;;3.47;3.28;;;;;;;10.04;100.00;100832.47;5247646;28;20012;-67
2023/01/11 05:39:23;;;;;;;5.43;4.18;;;;;;;10.03;100.00;100818.16;5229446;28;20050;-66
2023/01/11 05:41:53;;;;;;;3.38;3.17;;;;;;;10.03;100.00;100823.53;5246609;28;20031;-70
2023/01/11 05:47:23;;;;;;;3.97;3.67;;;;;;;10.03;100.00;100828.94;5174684;28;20043;-66
2023/01/11 05:49:53;;;;;;;5.05;4.65;;;;;;;10.03;100.00;100830.81;5246900;28;20028;-67
2023/01/11 05:52:24;;;;;;;6.57;5.07;;;;;;;10.00;100.00;100832.16;5246063;28;20046;-70
2023/01/11 05:54:54;;;;;;;5.90;4.70;;;;;;;10.00;100.00;100847.50;5246873;28;20029;-67
2023/01/11 05:57:24;;;;;;;8.32;4.57;;;;;;;9.98;100.00;100847.75;5247010;28;20099;-67
2023/01/11 05:59:55;;;;;;;5.18;4.78;;;;;;;9.99;100.00;100852.09;5247183;28;20472;-69
2023/01/11 06:02:25;;;;;;;4.70;4.40;;;;;;;9.96;100.00;100847.19;5246532;28;20483;-67
2023/01/11 06:04:56;;;;;;;3.88;3.50;;;;;;;9.94;100.00;100835.84;5246619;28;20032;-66
2023/01/11 06:07:26;;;;;;;10.15;4.85;;;;;;;9.94;100.00;100837.72;5246423;28;20027;-66
2023/01/11 06:09:56;;;;;;;4.85;4.55;;;;;;;9.93;100.00;100836.91;5246622;28;20028;-66
2023/01/11 06:12:27;;;;;;;5.07;4.47;;;;;;;9.92;100.00;100840.69;5247292;28;20040;-66
2023/01/11 06:14:57;;;;;;;15.45;6.55;;;;;;;9.90;100.00;100856.28;5244454;28;20107;-69
2023/01/11 06:17:27;;;;;;;5.13;4.68;;;;;;;9.88;100.00;100852.22;5245184;28;20020;-67
2023/01/11 06:19:58;;;;;;;12.65;5.55;;;;;;;9.87;100.00;100859.50;5246002;28;20429;-66
2023/01/11 06:22:29;;;;;;;7.65;6.93;;;;;;;9.90;100.00;100850.91;5245111;28;20032;-67
2023/01/11 06:24:59;;;;;;;13.27;6.53;;;;;;;9.85;100.00;100852.72;5245220;28;20048;-67
2023/01/11 06:27:29;;;;;;;5.28;4.78;;;;;;;9.81;100.00;100876.69;5245815;28;20016;-66
2023/01/11 06:30:00;;;;;;;7.32;5.53;;;;;;;9.79;100.00;100881.53;5245298;28;20483;-70
2023/01/11 06:32:30;;;;;;;10.45;5.50;;;;;;;9.77;100.00;100879.06;5245295;28;20460;-69
2023/01/11 06:35:00;;;;;;;7.18;6.45;;;;;;;9.74;100.00;100878.75;5245806;28;20024;-67
2023/01/11 06:37:31;;;;;;;9.73;7.70;;;;;;;9.72;100.00;100881.69;5245920;28;20048;-66
2023/01/11 06:40:01;;;;;;;9.82;7.13;;;;;;;9.72;100.00;100883.59;5245612;28;20028;-66
2023/01/11 06:42:31;;;;;;;14.40;7.00;;;;;;;9.68;100.00;100879.75;5245092;28;20747;-66
2023/01/11 06:45:02;;;;;;;22.08;8.05;;;;;;;9.68;100.00;100877.06;5245777;28;20031;-66
2023/01/11 06:47:32;;;;;;;16.30;8.35;;;;;;;9.69;100.00;100897.56;5245223;28;20052;-70
2023/01/11 06:50:03;;;;;;;13.68;8.15;;;;;;;9.70;100.00;100893.81;5245812;28;20472;-70
2023/01/11 06:52:33;;;;;;;22.58;8.88;;;;;;;9.70;100.00;100901.88;5244988;28;20483;-68
2023/01/11 06:55:05;;;;;;;14.85;9.55;;;;;;;9.67;100.00;100915.88;5245198;28;20021;-66
2023/01/11 06:57:35;;;;;;;11.50;9.90;;;;;;;9.54;100.00;100900.84;5245469;28;20021;-68
2023/01/11 07:00:08;;;;;;;14.40;11.02;;;;;;;9.51;100.00;100906.75;5246697;22;20053;-67
2023/01/11 07:02:38;;;;;;;16.95;9.80;;;;;;;9.56;100.00;100925.69;5203791;28;20116;-67
2023/01/11 07:05:09;;;;;;;11.43;8.98;;;;;;;9.52;100.00;100929.16;5201995;28;20279;-64
2023/01/11 07:07:41;;;;;;;15.82;12.25;;;;;;;9.56;100.00;100932.94;5203943;28;20028;-66
2023/01/11 07:10:18;;;;;;;15.02;10.77;;;;;;;9.58;100.00;100930.81;5204287;28;20386;-66
2023/01/11 07:12:48;;;;;;;14.18;12.00;;;;;;;9.46;100.00;100926.38;5198750;28;20084;-68
2023/01/11 07:15:19;;;;;;;11.38;10.27;;;;;;;9.50;100.00;100931.28;5203536;28;20029;-66
2023/01/11 07:17:55;;;;;;;13.30;11.88;;;;;;;9.48;100.00;100945.81;5186765;28;20112;-67
2023/01/11 07:20:26;;;;;;;13.15;10.68;;;;;;;9.41;100.00;100941.63;5204232;28;20033;-67
2023/01/11 07:22:58;;;;;;;16.50;10.23;;;;;;;9.37;100.00;100952.09;5203645;28;20146;-67
2023/01/11 07:25:29;;;;;;;22.90;10.18;;;;;;;9.37;100.00;100953.97;5186488;28;20213;-66
2023/01/11 07:28:02;;;;;;;17.85;9.60;;;;;;;9.32;100.00;100961.97;5204078;28;20036;-67
2023/01/11 07:30:35;;;;;;;14.98;9.00;;;;;;;9.27;100.00;100964.56;5186409;28;20029;-67
2023/01/11 07:33:06;;;;;;;18.48;8.23;;;;;;;9.27;100.00;100972.66;5204187;28;20111;-65
2023/01/11 07:35:36;;;;;;;9.73;6.18;;;;;;;9.12;100.00;100963.28;5205618;28;20088;-66
2023/01/11 07:38:09;;;;;;;14.35;6.35;;;;;;;9.24;100.00;100975.88;5209248;28;20695;-66
2023/01/11 07:40:39;;;;;;;12.52;6.85;;;;;;;9.20;100.00;100983.63;5202660;28;20339;-68
2023/01/11 07:43:13;;;;;;;10.88;6.65;;;;;;;9.24;100.00;100982.03;5203288;28;20025;-66
2023/01/11 07:45:49;;;;;;;13.73;7.22;;;;;;;9.26;100.00;100974.53;5203633;28;20056;-67
2023/01/11 07:48:24;;;;;;;10.45;8.55;;;;;;;9.26;100.00;100985.31;5203744;28;20033;-68
2023/01/11 07:50:55;;;;;;;19.02;9.82;;;;;;;9.12;100.00;100975.94;5202859;28;20039;-68
2023/01/11 07:53:25;;;;;;;13.38;7.43;;;;;;;9.21;100.00;101006.81;5201973;28;20017;-66
2023/01/11 07:55:56;;;;;;;11.32;8.45;;;;;;;9.14;100.00;101014.22;5202864;28;20030;-67
2023/01/11 07:58:26;;;;;;;10.40;7.32;;;;;;;9.14;100.00;101025.00;5202616;28;20095;-67
2023/01/11 08:00:58;;;;;;;16.15;8.70;;;;;;;9.13;100.00;101028.75;5203468;28;20057;-67
2023/01/11 08:03:29;;;;;;;15.23;7.35;;;;;;;9.01;100.00;101026.09;5202858;28;20466;-67
2023/01/11 08:05:59;;;;;;;8.38;6.72;;;;;;;9.06;100.00;101049.63;5203413;28;20112;-67
2023/01/11 08:08:30;;;;;;;11.07;7.25;;;;;;;9.05;100.00;101056.91;5203340;28;20286;-68
2023/01/11 08:16:38;;;;;;;15.85;7.53;;;;;;;9.00;100.00;101070.25;5203437;28;20395;-67
2023/01/11 08:19:08;;;;;;;13.32;6.43;;;;;;;8.98;100.00;101085.03;5202469;28;20027;-67
2023/01/11 08:21:39;;;;;;;14.93;6.97;;;;;;;8.93;100.00;101083.06;5202556;28;20029;-67
2023/01/11 08:24:10;;;;;;;21.17;8.43;;;;;;;8.91;100.00;101078.97;5184443;28;20500;-67
2023/01/11 08:26:40;;;;;;;12.43;5.22;;;;;;;8.88;100.00;101088.34;5202457;28;20021;-67
2023/01/11 08:29:11;;;;;;;7.53;6.90;;;;;;;8.80;100.00;101083.34;5202453;28;20077;-67
2023/01/11 08:31:45;;;;;;;14.57;7.10;;;;;;;8.79;100.00;101087.91;5202924;28;20025;-67
2023/01/11 08:34:16;;;;;;;6.70;6.10;;;;;;;8.66;100.00;101074.69;5203106;28;20493;-67
2023/01/11 08:36:46;;;;;;;10.05;6.68;;;;;;;8.67;100.00;101094.34;5202992;28;20018;-67
2023/01/11 08:39:17;;;;;;;17.75;7.85;;;;;;;8.60;100.00;101096.38;5202645;28;20107;-67
2023/01/11 08:41:47;;;;;;;15.35;6.10;;;;;;;8.54;100.00;101108.91;5202348;28;20397;-67
2023/01/11 08:44:17;;;;;;;13.80;4.85;;;;;;;8.46;100.00;101120.84;5202396;28;20040;-66
2023/01/11 08:46:48;;;;;;;15.00;5.75;;;;;;;8.45;100.00;101121.09;5185666;28;20037;-66
2023/01/11 08:49:18;;;;;;;16.13;6.25;;;;;;;8.32;100.00;101113.25;5185508;28;20022;-67
2023/01/11 08:51:50;;;;;;;10.90;4.80;;;;;;;8.14;100.00;101106.91;5202756;28;20519;-66
2023/01/11 08:54:21;;;;;;;11.82;6.60;;;;;;;8.25;100.00;101132.19;5185472;28;20114;-67
2023/01/11 08:56:51;;;;;;;22.90;7.05;;;;;;;8.16;100.00;101130.06;5185197;28;20037;-66
2023/01/11 08:59:22;;;;;;;13.50;5.82;;;;;;;7.98;100.00;101104.09;5202938;28;20459;-66
2023/01/11 09:01:52;;;;;;;23.05;6.65;;;;;;;7.92;100.00;101107.72;5202836;28;20532;-67
2023/01/11 09:04:23;;;;;;;11.00;6.35;;;;;;;7.92;100.00;101130.06;5206421;28;20392;-66
2023/01/11 09:06:54;;;;;;;7.90;7.10;;;;;;;7.98;100.00;101142.56;5206553;28;20374;-65
2023/01/11 09:09:24;;;;;;;13.23;7.07;;;;;;;7.81;100.00;101122.78;5206640;28;20032;-66
2023/01/11 09:11:59;;;;;;;14.98;6.97;;;;;;;7.87;100.00;101146.06;5206398;28;20223;-66
2023/01/11 09:14:30;;;;;;;8.73;5.03;;;;;;;7.80;100.00;101148.84;5189483;28;20029;-66
2023/01/11 09:17:00;;;;;;;7.78;7.18;;;;;;;7.74;100.00;101144.41;5206641;28;20100;-66
2023/01/11 09:19:32;;;;;;;10.75;5.68;;;;;;;7.69;100.00;101149.66;5206181;28;20132;-66
2023/01/11 09:22:02;;;;;;;18.90;8.50;;;;;;;7.66;100.00;101157.34;5206644;28;20037;-66
2023/01/11 09:24:33;;;;;;;20.23;7.45;;;;;;;7.67;100.00;101161.69;5189240;28;20026;-66
2023/01/11 09:27:03;;;;;;;20.17;8.43;;;;;;;7.67;100.00;101172.44;5188392;28;20091;-67
2023/01/11 09:29:34;;;;;;;15.57;7.03;;;;;;;7.63;100.00;101173.94;5206570;28;20059;-67
2023/01/11 09:32:04;;;;;;;7.70;6.47;;;;;;;7.60;100.00;101179.75;5205439;28;20053;-66
2023/01/11 09:34:35;;;;;;;8.95;6.68;;;;;;;7.57;100.00;101180.22;5206156;28;20029;-66
2023/01/11 09:37:06;;;;;;;10.80;5.30;;;;;;;7.57;100.00;101189.09;5206112;28;20022;-67
2023/01/11 09:39:37;;;;;;;7.28;6.40;;;;;;;7.52;100.00;101185.44;5187993;28;20061;-66
2023/01/11 09:42:11;;;;;;;19.92;7.63;;;;;;;7.62;100.00;101193.78;5206222;28;20536;-66
2023/01/11 09:44:49;;;;;;;14.18;6.70;;;;;;;7.69;100.00;101199.91;5205845;28;20033;-67
2023/01/11 09:47:30;;;;;;;16.00;7.75;;;;;;;7.76;100.00;101206.00;5206391;28;20071;-67
2023/01/11 09:50:09;;;;;;;20.92;8.38;;;;;;;7.77;100.00;101207.66;5206054;28;20079;-66
2023/01/11 09:52:43;;;;;;;9.27;7.28;;;;;;;7.86;100.00;101211.63;5187734;28;20029;-66
2023/01/11 09:55:18;;;;;;;10.05;7.03;;;;;;;7.81;100.00;101203.44;5205270;28;20517;-66
2023/01/11 09:58:02;;;;;;;7.43;6.75;;;;;;;7.91;100.00;101214.47;5188065;28;20108;-66
2023/01/11 10:00:59;;;;;;;22.45;8.02;;;;;;;7.94;100.00;101216.69;5205679;28;20083;-67
2023/01/11 10:03:51;;;;;;;10.15;5.68;;;;;;;7.97;100.00;101227.00;5204557;28;20041;-67
2023/01/11 10:06:31;;;;;;;11.40;5.50;;;;;;;8.03;100.00;101226.09;5205441;28;20080;-68
2023/01/11 10:09:10;;;;;;;20.58;8.48;;;;;;;8.06;100.00;101222.94;5205883;28;20030;-67
2023/01/11 10:12:01;;;;;;;26.38;8.05;;;;;;;8.08;100.00;101220.81;5204921;28;20035;-66
2023/01/11 10:14:40;;;;;;;6.22;5.35;;;;;;;8.14;100.00;101219.88;5204531;28;20029;-68
2023/01/11 10:17:41;;;;;;;17.70;7.55;;;;;;;8.18;100.00;101227.50;5205777;28;20488;-66
2023/01/11 10:20:11;;;;;;;16.08;7.28;;;;;;;8.21;100.00;101224.34;5205416;28;20542;-66
2023/01/11 10:22:45;;;;;;;13.20;6.10;;;;;;;8.23;100.00;101227.63;5204765;28;20025;-66
2023/01/11 10:25:25;;;;;;;9.85;8.02;;;;;;;8.24;100.00;101222.03;5205419;28;20025;-66
2023/01/11 10:28:05;;;;;;;14.05;7.95;;;;;;;8.22;100.00;101215.22;5205308;28;20079;-66
2023/01/11 10:42:27;;;;;;;8.63;7.85;;;;;;;8.43;100.00;101210.13;5176660;28;20088;-65
2023/01/11 10:45:22;;;;;;;16.17;7.05;;;;;;;8.48;100.00;101214.00;5187071;28;20238;-65
2023/01/11 10:47:56;;;;;;;18.92;6.22;;;;;;;8.53;100.00;101216.81;5205418;28;20049;-66
2023/01/11 10:50:37;;;;;;;6.13;5.30;;;;;;;8.38;100.00;101187.66;5187574;28;20025;-66
2023/01/11 10:53:17;;;;;;;18.02;6.55;;;;;;;8.56;100.00;101230.63;5200546;28;20059;-65
2023/01/11 10:56:17;;;;;;;11.95;5.20;;;;;;;8.35;100.00;101188.16;5201928;28;20033;-65
2023/01/11 10:59:12;;;;;;;6.35;5.95;;;;;;;8.68;100.00;101220.66;5204572;28;20366;-66
2023/01/11 11:01:54;;;;;;;10.82;4.68;;;;;;;8.74;100.00;101213.53;5200872;28;20021;-65
2023/01/11 11:05:09;;;;;;;12.88;6.90;;;;;;;8.79;100.00;101233.31;5204935;28;20330;-65
2023/01/11 11:08:02;;;;;;;9.45;4.95;;;;;;;8.84;100.00;101211.06;5203960;28;20553;-65
2023/01/11 11:10:52;;;;;;;15.35;6.57;;;;;;;8.93;100.00;101223.13;5203797;28;20033;-66
2023/01/11 11:13:30;;;;;;;9.77;5.97;;;;;;;8.88;100.00;101214.94;5203497;28;20025;-64
2023/01/11 11:16:03;;;;;;;17.98;7.38;;;;;;;8.96;100.00;101222.63;5202443;28;20029;-66
2023/01/11 11:18:33;;;;;;;7.78;6.13;;;;;;;9.00;100.00;101212.19;5203882;28;20029;-66
2023/01/11 11:21:17;;;;;;;13.15;6.15;;;;;;;9.10;100.00;101220.50;5204260;28;20032;-65
2023/01/11 11:23:54;;;;;;;17.80;8.80;;;;;;;9.22;100.00;101210.53;5203481;28;20025;-66
2023/01/11 11:26:32;;;;;;;19.77;7.35;;;;;;;9.29;100.00;101192.34;5203284;28;20053;-66
2023/01/11 11:29:06;;;;;;;21.92;8.00;;;;;;;9.48;100.00;101215.38;5186122;28;20172;-65
2023/01/11 11:31:42;;;;;;;14.15;7.50;;;;;;;9.57;100.00;101213.09;5203938;28;20024;-66
2023/01/11 11:34:16;;;;;;;10.32;6.78;;;;;;;9.76;100.00;101221.84;5186107;28;20465;-66
2023/01/11 11:36:49;;;;;;;7.03;5.82;;;;;;;9.75;100.00;101210.22;5200370;28;20469;-66
2023/01/11 11:39:27;;;;;;;18.00;7.13;;;;;;;9.98;100.00;101236.25;5203966;28;20025;-66
2023/01/11 11:42:07;;;;;;;12.52;7.65;;;;;;;10.04;100.00;101237.16;5202835;28;20044;-66
2023/01/11 11:44:37;;;;;;;10.07;5.55;;;;;;;10.08;100.00;101239.16;5202915;28;20030;-68
2023/01/11 11:47:14;;;;;;;22.48;7.10;;;;;;;10.13;100.00;101238.38;5204164;28;20539;-67
2023/01/11 11:49:45;;;;;;;9.60;6.78;;;;;;;10.07;100.00;101234.81;5203441;28;20108;-67
2023/01/11 11:52:16;;;;;;;9.48;5.75;;;;;;;10.14;100.00;101243.53;5202711;28;20182;-67
2023/01/11 11:54:57;;;;;;;17.95;5.80;;;;;;;10.17;100.00;101242.25;5185807;28;20033;-66
2023/01/11 11:57:38;;;;;;;7.93;6.10;;;;;;;10.11;100.00;101252.13;5206922;28;20037;-67
2023/01/11 12:00:23;;;;;;;17.10;7.57;;;;;;;10.06;100.00;101254.75;5224018;28;20044;-67
2023/01/11 12:02:58;;;;;;;6.25;4.90;;;;;;;9.96;100.00;101241.06;5223830;28;20116;-68
2023/01/11 12:05:31;;;;;;;12.15;6.13;;;;;;;9.90;100.00;101231.25;5224500;28;20108;-67
2023/01/11 12:08:02;;;;;;;11.43;6.88;;;;;;;9.96;100.00;101251.03;5223776;28;20539;-67
2023/01/11 12:10:33;;;;;;;13.80;7.13;;;;;;;9.85;100.00;101224.94;5223889;28;20029;-68
2023/01/11 12:13:26;;;;;;;10.13;6.72;;;;;;;10.09;100.00;101246.19;5223875;28;20488;-67
2023/01/11 12:15:59;;;;;;;10.13;7.10;;;;;;;10.17;100.00;101247.63;5205972;28;20071;-67
2023/01/11 12:18:40;;;;;;;13.15;7.25;;;;;;;10.27;100.00;101238.94;5224204;28;20493;-68
2023/01/11 12:21:19;;;;;;;11.35;6.43;;;;;;;10.33;100.00;101233.38;5200822;28;20314;-67
2023/01/11 12:24:09;;;;;;;10.05;5.85;;;;;;;10.35;100.00;101238.53;5202046;28;20383;-68
2023/01/11 12:26:44;;;;;;;8.95;5.25;;;;;;;10.24;100.00;101234.03;5203928;28;20446;-67
2023/01/11 12:29:18;;;;;;;15.88;6.20;;;;;;;10.16;100.00;101236.03;5185602;28;20120;-67
2023/01/11 12:32:09;;;;;;;7.88;4.68;;;;;;;10.16;100.00;101233.31;5203102;28;20039;-67
2023/01/11 12:34:51;;;;;;;7.32;4.78;;;;;;;10.18;100.00;101229.56;5202864;28;20060;-68